createdAt,value
2022-12-17T00:02:15.829Z,99.90
2022-12-17T00:05:01.853Z,99.90
2022-12-17T00:07:47.324Z,99.90
2022-12-17T00:10:33.006Z,99.90
2022-12-17T00:15:54.291Z,99.90
2022-12-17T00:18:42.469Z,99.90
2022-12-17T00:21:28.988Z,99.90
2022-12-17T00:24:15.335Z,99.90
2022-12-17T00:27:00.663Z,99.90
2022-12-17T00:29:57.671Z,99.90
2022-12-17T00:32:44.412Z,99.90
2022-12-17T00:35:30.259Z,99.90
2022-12-17T00:38:15.874Z,99.90
2022-12-17T00:41:09.848Z,99.90
2022-12-17T00:43:56.358Z,99.90
2022-12-17T00:46:42.583Z,99.90
2022-12-17T00:49:29.436Z,99.90
2022-12-17T00:52:14.936Z,99.90
2022-12-17T00:55:00.951Z,99.90
2022-12-17T00:57:46.197Z,99.90
2022-12-17T01:00:32.275Z,99.90
2022-12-17T01:03:25.044Z,99.90
2022-12-17T01:06:11.829Z,99.90
2022-12-17T01:08:57.618Z,99.90
2022-12-17T01:11:43.513Z,99.90
2022-12-17T01:14:29.017Z,99.90
2022-12-17T01:17:14.726Z,99.90
2022-12-17T01:20:00.157Z,99.90
2022-12-17T01:22:46.811Z,99.90
2022-12-17T01:25:32.442Z,99.90
2022-12-17T01:28:18.111Z,99.90
2022-12-17T01:31:03.728Z,99.90
2022-12-17T01:33:49.249Z,99.90
2022-12-17T01:36:34.683Z,99.90
2022-12-17T01:39:21.960Z,99.90
2022-12-17T01:42:07.696Z,99.90
2022-12-17T01:45:08.825Z,99.90
2022-12-17T01:47:57.858Z,99.90
2022-12-17T01:50:46.014Z,99.90
2022-12-17T01:53:34.125Z,99.90
2022-12-17T01:56:21.414Z,99.90
2022-12-17T01:59:07.595Z,99.90
2022-12-17T02:01:53.503Z,99.90
2022-12-17T02:04:39.307Z,99.90
2022-12-17T02:07:39.990Z,99.90
2022-12-17T02:10:38.703Z,99.90
2022-12-17T02:13:32.461Z,99.90
2022-12-17T02:16:25.749Z,99.90
2022-12-17T02:19:15.696Z,99.90
2022-12-17T02:22:02.228Z,99.90
2022-12-17T02:24:58.317Z,99.90
2022-12-17T02:27:46.582Z,99.90
2022-12-17T02:30:32.199Z,99.90
2022-12-17T02:33:19.277Z,99.90
2022-12-17T02:36:08.401Z,99.90
2022-12-17T02:38:50.298Z,99.90
2022-12-17T02:41:38.712Z,99.90
2022-12-17T02:44:28.021Z,99.90
2022-12-17T02:47:15.508Z,99.90
2022-12-17T02:50:03.520Z,99.90
2022-12-17T02:52:51.332Z,99.90
2022-12-17T02:55:36.801Z,99.90
2022-12-17T02:58:22.308Z,99.90
2022-12-17T03:01:08.951Z,99.90
2022-12-17T03:03:55.541Z,99.90
2022-12-17T03:06:41.066Z,99.90
2022-12-17T03:09:26.666Z,99.90
2022-12-17T03:12:12.215Z,99.90
2022-12-17T03:14:57.652Z,99.90
2022-12-17T03:17:44.326Z,99.90
2022-12-17T03:20:30.324Z,99.90
2022-12-17T03:23:20.871Z,99.90
2022-12-17T03:26:06.401Z,99.90
2022-12-17T03:28:52.028Z,99.90
2022-12-17T03:31:37.327Z,99.90
2022-12-17T03:34:24.332Z,99.90
2022-12-17T03:37:09.659Z,99.90
2022-12-17T03:39:55.198Z,99.90
2022-12-17T03:42:40.609Z,99.90
2022-12-17T03:45:26.612Z,99.90
2022-12-17T03:48:23.066Z,99.90
2022-12-17T03:51:10.287Z,99.90
2022-12-17T03:53:56.406Z,99.90
2022-12-17T03:56:41.958Z,99.90
2022-12-17T03:59:27.819Z,99.90
2022-12-17T04:02:13.450Z,99.90
2022-12-17T04:04:58.850Z,99.90
2022-12-17T04:07:45.708Z,99.90
2022-12-17T04:10:31.231Z,99.90
2022-12-17T04:13:16.972Z,99.90
2022-12-17T04:16:02.529Z,99.90
2022-12-17T04:18:47.744Z,99.90
2022-12-17T04:21:33.168Z,99.90
2022-12-17T04:24:20.167Z,99.90
2022-12-17T04:27:05.471Z,99.90
2022-12-17T04:29:51.136Z,99.90
2022-12-17T04:32:36.655Z,99.90
2022-12-17T04:35:22.553Z,99.90
2022-12-17T04:38:08.625Z,99.90
2022-12-17T04:40:55.206Z,99.90
2022-12-17T04:43:40.693Z,99.90
2022-12-17T04:46:26.281Z,99.90
2022-12-17T04:49:11.734Z,99.90
2022-12-17T04:51:57.447Z,99.90
2022-12-17T04:54:43.051Z,99.90
2022-12-17T04:57:29.946Z,99.90
2022-12-17T05:00:15.360Z,99.90
2022-12-17T05:03:01.097Z,99.90
2022-12-17T05:05:55.014Z,99.90
2022-12-17T05:08:41.682Z,99.90
2022-12-17T05:11:26.960Z,99.90
2022-12-17T05:14:13.575Z,99.90
2022-12-17T05:16:59.067Z,99.90
2022-12-17T05:19:44.571Z,99.90
2022-12-17T05:22:30.107Z,99.90
2022-12-17T05:25:15.515Z,99.90
2022-12-17T05:28:03.837Z,99.90
2022-12-17T05:30:50.468Z,99.90
2022-12-17T05:33:36.370Z,99.90
2022-12-17T05:36:22.623Z,99.90
2022-12-17T05:39:08.324Z,99.90
2022-12-17T05:41:53.649Z,99.90
2022-12-17T05:44:44.274Z,99.90
2022-12-17T05:47:30.735Z,99.90
2022-12-17T05:50:16.783Z,99.90
2022-12-17T05:53:02.101Z,99.90
2022-12-17T05:55:48.089Z,99.90
2022-12-17T05:58:33.674Z,99.90
2022-12-17T06:01:25.693Z,99.90
2022-12-17T06:04:12.587Z,99.90
2022-12-17T06:06:58.087Z,99.90
2022-12-17T06:09:43.628Z,99.90
2022-12-17T06:12:29.205Z,99.90
2022-12-17T06:15:14.786Z,99.90
2022-12-17T06:18:00.369Z,99.90
2022-12-17T06:20:47.205Z,99.90
2022-12-17T06:23:32.919Z,99.90
2022-12-17T06:26:18.348Z,99.90
2022-12-17T06:29:03.774Z,99.90
2022-12-17T06:31:49.600Z,99.90
2022-12-17T06:34:35.393Z,99.90
2022-12-17T06:37:22.208Z,99.90
2022-12-17T06:40:10.040Z,99.90
2022-12-17T06:42:55.620Z,99.90
2022-12-17T06:45:41.152Z,99.90
2022-12-17T06:48:27.569Z,99.90
2022-12-17T06:51:13.135Z,99.90
2022-12-17T06:54:00.298Z,99.90
2022-12-17T06:56:45.842Z,99.90
2022-12-17T06:59:31.339Z,99.90
2022-12-17T07:02:13.306Z,99.90
2022-12-17T07:04:59.019Z,99.90
2022-12-17T07:07:44.622Z,99.90
2022-12-17T07:10:31.750Z,99.90
2022-12-17T07:13:23.862Z,99.90
2022-12-17T07:16:09.722Z,99.90
2022-12-17T07:18:55.853Z,99.90
2022-12-17T07:21:41.553Z,99.90
2022-12-17T07:24:26.883Z,99.90
2022-12-17T07:27:14.136Z,99.90
2022-12-17T07:29:59.396Z,99.90
2022-12-17T07:32:44.961Z,99.90
2022-12-17T07:35:30.646Z,99.90
2022-12-17T07:38:19.469Z,99.90
2022-12-17T07:41:05.037Z,99.90
2022-12-17T07:43:53.357Z,99.90
2022-12-17T07:46:45.052Z,99.90
2022-12-17T07:49:30.541Z,99.90
2022-12-17T07:52:16.002Z,99.90
2022-12-17T07:55:01.641Z,99.90
2022-12-17T07:57:47.098Z,99.90
2022-12-17T08:00:34.396Z,99.90
2022-12-17T08:03:20.396Z,99.90
2022-12-17T08:06:05.787Z,99.90
2022-12-17T08:08:51.221Z,99.90
2022-12-17T08:11:41.853Z,99.90
2022-12-17T08:14:35.841Z,99.90
2022-12-17T08:17:22.378Z,99.90
2022-12-17T08:20:07.323Z,99.90
2022-12-17T08:22:53.111Z,99.90
2022-12-17T08:25:38.500Z,99.90
2022-12-17T08:28:49.688Z,99.90
2022-12-17T08:31:29.658Z,99.90
2022-12-17T08:34:16.145Z,99.90
2022-12-17T08:37:01.814Z,99.90
2022-12-17T08:39:47.055Z,99.90
2022-12-17T08:42:32.523Z,99.90
2022-12-17T08:45:18.133Z,99.90
2022-12-17T08:48:04.248Z,99.90
2022-12-17T08:50:51.151Z,99.90
2022-12-17T08:53:36.954Z,99.90
2022-12-17T08:56:22.843Z,99.90
2022-12-17T08:59:08.432Z,99.90
2022-12-17T09:01:54.481Z,99.90
2022-12-17T09:04:39.958Z,99.90
2022-12-17T09:07:26.758Z,99.90
2022-12-17T09:10:12.636Z,99.90
2022-12-17T09:13:04.248Z,99.90
2022-12-17T09:15:50.134Z,99.90
2022-12-17T09:18:37.410Z,99.90
2022-12-17T09:21:23.326Z,99.90
2022-12-17T09:24:11.188Z,99.90
2022-12-17T09:26:56.560Z,99.90
2022-12-17T09:29:42.086Z,99.90
2022-12-17T09:32:32.985Z,99.90
2022-12-17T09:35:18.901Z,99.90
2022-12-17T09:38:10.988Z,99.50
2022-12-17T09:40:59.152Z,99.90
2022-12-17T09:43:49.120Z,99.90
2022-12-17T09:46:41.592Z,99.90
2022-12-17T09:49:36.514Z,99.90
2022-12-17T09:52:47.965Z,99.90
2022-12-17T09:55:40.111Z,99.90
2022-12-17T09:58:38.449Z,99.90
2022-12-17T10:01:20.966Z,99.90
2022-12-17T10:04:07.444Z,99.90
2022-12-17T10:06:55.116Z,99.90
2022-12-17T10:09:40.732Z,99.90
2022-12-17T10:12:32.872Z,99.90
2022-12-17T10:15:20.389Z,99.90
2022-12-17T10:18:05.972Z,99.90
2022-12-17T10:20:57.427Z,99.90
2022-12-17T10:23:44.956Z,99.90
2022-12-17T10:26:35.922Z,99.90
2022-12-17T10:29:25.471Z,99.90
2022-12-17T10:32:19.745Z,99.90
2022-12-17T10:35:13.939Z,99.90
2022-12-17T10:37:59.365Z,99.90
2022-12-17T10:40:46.487Z,99.90
2022-12-17T10:43:42.824Z,99.90
2022-12-17T10:46:28.346Z,99.90
2022-12-17T10:49:31.037Z,99.90
2022-12-17T10:52:23.098Z,99.90
2022-12-17T10:55:21.180Z,99.90
2022-12-17T10:58:08.795Z,99.90
2022-12-17T11:00:56.412Z,99.90
2022-12-17T11:03:52.367Z,99.50
2022-12-17T11:06:44.912Z,98.60
2022-12-17T11:09:42.572Z,97.90
2022-12-17T11:12:31.029Z,98.10
2022-12-17T11:15:26.098Z,98.20
2022-12-17T11:18:23.730Z,98.30
2022-12-17T11:21:14.740Z,98.40
2022-12-17T11:24:04.880Z,97.80
2022-12-17T11:26:53.370Z,97.80
2022-12-17T11:29:39.057Z,98.00
2022-12-17T11:32:50.622Z,98.10
2022-12-17T11:35:43.890Z,98.70
2022-12-17T11:38:40.283Z,98.80
2022-12-17T11:41:36.853Z,99.20
2022-12-17T11:44:33.711Z,99.10
2022-12-17T11:47:44.415Z,99.10
2022-12-17T11:50:42.301Z,98.90
2022-12-17T11:53:39.562Z,98.80
2022-12-17T11:56:33.738Z,98.30
2022-12-17T11:59:26.542Z,97.80
2022-12-17T12:02:23.417Z,98.30
2022-12-17T12:05:35.971Z,99.10
2022-12-17T12:08:28.614Z,99.50
2022-12-17T12:11:21.363Z,98.90
2022-12-17T12:14:19.002Z,98.40
2022-12-17T12:17:23.934Z,98.10
2022-12-17T12:20:33.045Z,97.90
2022-12-17T12:23:29.598Z,96.70
2022-12-17T12:26:23.649Z,96.00
2022-12-17T12:29:18.054Z,96.70
2022-12-17T12:32:09.700Z,97.50
2022-12-17T12:34:57.390Z,98.40
2022-12-17T12:37:43.875Z,98.90
2022-12-17T12:40:37.721Z,99.50
2022-12-17T12:43:29.142Z,99.90
2022-12-17T12:46:21.588Z,99.90
2022-12-17T12:49:14.025Z,99.90
2022-12-17T12:52:00.021Z,99.90
2022-12-17T12:54:49.368Z,99.90
2022-12-17T12:57:46.235Z,99.90
2022-12-17T13:00:56.113Z,99.90
2022-12-17T13:03:49.067Z,99.90
2022-12-17T13:06:44.302Z,99.90
2022-12-17T13:09:30.738Z,99.90
2022-12-17T13:12:31.067Z,99.90
2022-12-17T13:15:32.902Z,99.90
2022-12-17T13:18:16.245Z,99.90
2022-12-17T13:20:45.690Z,99.90
2022-12-17T13:23:27.113Z,99.90
2022-12-17T13:26:15.849Z,99.90
2022-12-17T13:28:49.215Z,99.90
2022-12-17T13:31:21.996Z,99.90
2022-12-17T13:33:57.910Z,99.90
2022-12-17T13:36:34.527Z,99.90
2022-12-17T13:39:07.965Z,99.90
2022-12-17T13:41:38.692Z,99.90
2022-12-17T13:44:22.294Z,99.90
2022-12-17T13:46:52.332Z,99.90
2022-12-17T13:49:22.731Z,99.90
2022-12-17T13:52:05.224Z,99.90
2022-12-17T13:54:37.045Z,99.90
2022-12-17T13:57:09.407Z,99.90
2022-12-17T13:59:37.688Z,99.90
2022-12-17T14:02:06.223Z,99.90
2022-12-17T14:04:34.646Z,99.90
2022-12-17T14:07:07.247Z,99.90
2022-12-17T14:09:38.349Z,99.90
2022-12-17T14:12:22.207Z,99.90
2022-12-17T14:14:52.761Z,99.90
2022-12-17T14:17:23.605Z,99.90
2022-12-17T14:19:58.284Z,99.90
2022-12-17T14:22:33.905Z,99.90
2022-12-17T14:25:03.017Z,99.90
2022-12-17T14:27:35.378Z,99.90
2022-12-17T14:30:05.405Z,99.90
2022-12-17T14:32:35.947Z,99.90
2022-12-17T14:35:04.904Z,99.90
2022-12-17T14:37:34.344Z,99.90
2022-12-17T14:40:05.747Z,99.90
2022-12-17T14:42:38.300Z,99.90
2022-12-17T14:45:21.645Z,99.90
2022-12-17T14:47:56.149Z,99.90
2022-12-17T14:50:31.760Z,99.90
2022-12-17T14:53:03.636Z,99.90
2022-12-17T14:55:36.448Z,99.90
2022-12-17T14:58:10.656Z,99.90
2022-12-17T15:00:40.714Z,99.90
2022-12-17T15:03:12.482Z,99.90
2022-12-17T15:05:42.107Z,99.90
2022-12-17T15:08:12.614Z,99.90
2022-12-17T15:10:40.891Z,99.90
2022-12-17T15:13:09.334Z,99.90
2022-12-17T15:15:37.496Z,99.90
2022-12-17T15:18:05.899Z,99.90
2022-12-17T15:20:34.017Z,99.90
2022-12-17T15:23:03.586Z,99.90
2022-12-17T15:25:33.223Z,99.90
2022-12-17T15:28:01.399Z,99.90
2022-12-17T15:30:29.697Z,99.90
2022-12-17T15:32:58.465Z,99.90
2022-12-17T15:35:26.954Z,99.90
2022-12-17T15:37:55.077Z,99.90
2022-12-17T15:40:23.209Z,99.90
2022-12-17T15:43:10.254Z,99.90
2022-12-17T15:45:40.796Z,99.90
2022-12-17T15:48:09.139Z,99.90
2022-12-17T15:50:39.159Z,99.90
2022-12-17T15:53:09.290Z,99.90
2022-12-17T15:55:38.209Z,99.90
2022-12-17T15:58:09.113Z,99.90
2022-12-17T16:00:37.408Z,99.90
2022-12-17T16:03:05.884Z,99.90
2022-12-17T16:05:34.251Z,99.90
2022-12-17T16:08:03.336Z,99.90
2022-12-17T16:10:31.781Z,99.90
2022-12-17T16:13:00.100Z,99.90
2022-12-17T16:15:30.608Z,99.90
2022-12-17T16:17:58.872Z,99.90
2022-12-17T16:20:27.282Z,99.90
2022-12-17T16:22:55.575Z,99.90
2022-12-17T16:25:23.819Z,99.90
2022-12-17T16:27:52.001Z,99.90
2022-12-17T16:30:20.995Z,99.90
2022-12-17T16:32:50.530Z,99.90
2022-12-17T16:35:18.862Z,99.90
2022-12-17T16:37:47.120Z,99.90
2022-12-17T16:40:15.397Z,99.90
2022-12-17T16:42:43.521Z,99.90
2022-12-17T16:45:12.374Z,99.90
2022-12-17T16:47:41.541Z,99.90
2022-12-17T16:50:11.346Z,99.90
2022-12-17T16:52:39.533Z,99.90
2022-12-17T16:55:08.586Z,99.90
2022-12-17T16:57:36.700Z,99.90
2022-12-17T17:00:05.591Z,99.90
2022-12-17T17:02:33.837Z,99.90
2022-12-17T17:05:02.501Z,99.90
2022-12-17T17:07:32.082Z,99.90
2022-12-17T17:10:00.168Z,99.90
2022-12-17T17:12:28.481Z,99.90
2022-12-17T17:14:56.774Z,99.90
2022-12-17T17:17:55.371Z,99.90
2022-12-17T17:20:14.290Z,99.90
2022-12-17T17:22:44.608Z,99.90
2022-12-17T17:25:13.517Z,99.90
2022-12-17T17:27:41.804Z,99.90
2022-12-17T17:30:13.501Z,99.90
2022-12-17T17:32:41.694Z,99.90
2022-12-17T17:35:10.276Z,99.90
2022-12-17T17:37:38.455Z,99.90
2022-12-17T17:40:09.762Z,99.90
2022-12-17T17:42:37.825Z,99.90
2022-12-17T17:45:08.744Z,99.90
2022-12-17T17:47:37.795Z,99.90
2022-12-17T17:50:06.734Z,99.90
2022-12-17T17:52:34.869Z,99.90
2022-12-17T17:55:03.376Z,99.90
2022-12-17T17:57:32.981Z,99.90
2022-12-17T18:00:01.204Z,99.90
2022-12-17T18:02:29.668Z,99.90
2022-12-17T18:05:01.935Z,99.90
2022-12-17T18:07:30.338Z,99.90
2022-12-17T18:10:00.997Z,99.90
2022-12-17T18:12:58.963Z,99.90
2022-12-17T18:15:28.969Z,99.90
2022-12-17T18:17:58.718Z,99.90
2022-12-17T18:20:27.711Z,99.90
2022-12-17T18:22:55.895Z,99.90
2022-12-17T18:25:24.178Z,99.90
2022-12-17T18:27:54.245Z,99.90
2022-12-17T18:30:23.299Z,99.90
2022-12-17T18:32:54.530Z,99.90
2022-12-17T18:35:22.570Z,99.90
2022-12-17T18:37:51.299Z,99.90
2022-12-17T18:40:19.544Z,99.90
2022-12-17T18:43:05.186Z,99.90
2022-12-17T18:45:38.411Z,99.90
2022-12-17T18:48:08.553Z,99.90
2022-12-17T18:50:36.767Z,99.90
2022-12-17T18:53:05.645Z,99.90
2022-12-17T18:55:34.399Z,99.90
2022-12-17T18:58:03.756Z,99.90
2022-12-17T19:00:32.042Z,99.90
2022-12-17T19:03:00.448Z,99.90
2022-12-17T19:05:30.407Z,99.90
2022-12-17T19:07:58.953Z,99.90
2022-12-17T19:10:27.543Z,99.90
2022-12-17T19:12:55.713Z,99.90
2022-12-17T19:15:23.903Z,99.90
2022-12-17T19:17:52.473Z,99.90
2022-12-17T19:20:20.537Z,99.90
2022-12-17T19:22:50.489Z,99.90
2022-12-17T19:25:18.882Z,99.90
2022-12-17T19:27:47.076Z,99.90
2022-12-17T19:30:16.445Z,99.90
2022-12-17T19:32:44.491Z,99.90
2022-12-17T19:35:13.057Z,99.90
2022-12-17T19:37:41.395Z,99.90
2022-12-17T19:40:12.440Z,99.90
2022-12-17T19:42:40.853Z,99.90
2022-12-17T19:45:10.139Z,99.90
2022-12-17T19:47:40.009Z,99.90
2022-12-17T19:50:10.786Z,99.90
2022-12-17T19:52:40.205Z,99.90
2022-12-17T19:55:12.196Z,99.90
2022-12-17T19:57:40.803Z,99.90
2022-12-17T20:00:10.945Z,99.90
2022-12-17T20:02:39.622Z,99.90
2022-12-17T20:05:09.673Z,99.90
2022-12-17T20:07:39.065Z,99.90
2022-12-17T20:10:08.925Z,99.90
2022-12-17T20:12:38.938Z,99.90
2022-12-17T20:15:08.160Z,99.90
2022-12-17T20:17:37.031Z,99.90
2022-12-17T20:20:07.668Z,99.90
2022-12-17T20:22:36.725Z,99.90
2022-12-17T20:25:10.576Z,99.90
2022-12-17T20:27:42.470Z,99.90
2022-12-17T20:30:14.111Z,99.90
2022-12-17T20:32:44.006Z,99.90
2022-12-17T20:35:16.023Z,99.90
2022-12-17T20:37:46.286Z,99.90
2022-12-17T20:40:14.870Z,99.90
2022-12-17T20:42:45.155Z,99.90
2022-12-17T20:45:13.571Z,99.90
2022-12-17T20:47:42.156Z,99.90
2022-12-17T20:50:11.668Z,99.90
2022-12-17T20:52:40.103Z,99.90
2022-12-17T20:55:08.993Z,99.90
2022-12-17T20:57:37.806Z,99.90
2022-12-17T21:00:09.695Z,99.90
2022-12-17T21:02:39.344Z,99.90
2022-12-17T21:05:09.072Z,99.90
2022-12-17T21:07:37.426Z,99.90
2022-12-17T21:10:06.645Z,99.90
2022-12-17T21:12:49.230Z,99.90
2022-12-17T21:15:20.747Z,99.90
2022-12-17T21:17:52.219Z,99.90
2022-12-17T21:20:21.299Z,99.90
2022-12-17T21:22:51.966Z,99.90
2022-12-17T21:25:20.749Z,99.90
2022-12-17T21:27:49.651Z,99.90
2022-12-17T21:30:23.006Z,99.90
2022-12-17T21:32:51.712Z,99.90
2022-12-17T21:35:20.580Z,99.90
2022-12-17T21:37:49.843Z,99.90
2022-12-17T21:40:19.461Z,99.90
2022-12-17T21:43:03.260Z,99.90
2022-12-17T21:45:38.697Z,99.90
2022-12-17T21:48:13.003Z,99.90
2022-12-17T21:50:44.347Z,99.90
2022-12-17T21:53:13.964Z,99.90
2022-12-17T21:55:42.899Z,99.90
2022-12-17T21:58:11.731Z,99.90
2022-12-17T22:00:41.500Z,99.90
2022-12-17T22:03:10.259Z,99.90
2022-12-17T22:05:38.682Z,99.90
2022-12-17T22:08:07.083Z,99.90
2022-12-17T22:10:41.488Z,99.90
2022-12-17T22:13:30.153Z,99.90
2022-12-17T22:16:00.012Z,99.90
2022-12-17T22:18:28.929Z,99.90
2022-12-17T22:21:01.365Z,99.90
2022-12-17T22:23:31.462Z,99.90
2022-12-17T22:26:00.424Z,99.90
2022-12-17T22:28:28.765Z,99.90
2022-12-17T22:31:26.279Z,99.90
2022-12-17T22:34:29.124Z,99.90
2022-12-17T22:38:33.754Z,99.90
2022-12-17T22:44:07.826Z,99.90
2022-12-17T22:44:49.751Z,99.90
2022-12-17T22:45:26.980Z,99.90
2022-12-17T22:47:58.928Z,99.90
2022-12-17T22:50:37.452Z,99.90
2022-12-17T22:53:14.841Z,99.90
2022-12-17T22:55:43.700Z,99.90
2022-12-17T22:58:12.184Z,99.90
2022-12-17T23:00:41.959Z,99.90
2022-12-17T23:03:10.710Z,99.90
2022-12-17T23:05:40.627Z,99.90
2022-12-17T23:08:09.382Z,99.90
2022-12-17T23:10:37.788Z,99.90
2022-12-17T23:13:06.730Z,99.90
2022-12-17T23:15:37.533Z,99.90
2022-12-17T23:18:08.119Z,99.90
2022-12-17T23:20:37.925Z,99.90
2022-12-17T23:23:07.918Z,99.90
2022-12-17T23:25:38.099Z,99.90
2022-12-17T23:28:06.575Z,99.90
2022-12-17T23:30:38.141Z,99.90
2022-12-17T23:33:06.770Z,99.90
2022-12-17T23:35:35.104Z,99.90
2022-12-17T23:38:04.589Z,99.90
2022-12-17T23:40:35.506Z,99.90
2022-12-17T23:43:04.903Z,99.90
2022-12-17T23:45:34.052Z,99.90
2022-12-17T23:48:02.894Z,99.90
2022-12-17T23:50:31.912Z,99.90
2022-12-17T23:53:01.130Z,99.90
2022-12-17T23:55:30.852Z,99.90
2022-12-17T23:58:02.193Z,99.90
